createdAt,value
2019-02-02T00:03:24.117Z,5.29
2019-02-02T00:08:26.781Z,5.23
2019-02-02T00:13:29.446Z,5.03
2019-02-02T00:18:32.197Z,5.10
2019-02-02T00:23:35.971Z,5.31
2019-02-02T00:28:38.553Z,5.34
2019-02-02T00:33:41.343Z,5.32
2019-02-02T00:38:44.033Z,5.33
2019-02-02T00:43:46.707Z,5.03
2019-02-02T00:48:49.266Z,4.91
2019-02-02T00:53:52.014Z,5.04
2019-02-02T00:58:54.814Z,5.16
2019-02-02T01:03:57.454Z,5.35
2019-02-02T01:09:00.041Z,5.25
2019-02-02T01:14:03.455Z,5.08
2019-02-02T01:19:06.435Z,4.84
2019-02-02T01:24:09.392Z,4.86
2019-02-02T01:29:12.256Z,4.89
2019-02-02T01:34:14.914Z,4.85
2019-02-02T01:39:17.515Z,4.76
2019-02-02T01:44:20.262Z,4.62
2019-02-02T01:49:22.951Z,4.57
2019-02-02T01:54:25.693Z,4.53
2019-02-02T01:59:28.284Z,4.53
2019-02-02T02:04:30.879Z,4.40
2019-02-02T02:09:33.576Z,4.46
2019-02-02T02:14:36.118Z,4.54
2019-02-02T02:19:38.904Z,4.54
2019-02-02T02:24:41.635Z,4.60
2019-02-02T02:29:44.216Z,4.66
2019-02-02T02:34:46.901Z,4.77
2019-02-02T02:39:49.481Z,4.61
2019-02-02T02:44:52.567Z,4.52
2019-02-02T02:49:55.251Z,4.50
2019-02-02T02:54:58.015Z,4.44
2019-02-02T03:00:00.621Z,4.41
2019-02-02T03:05:04.152Z,4.34
2019-02-02T03:10:09.097Z,4.31
2019-02-02T03:15:12.948Z,4.27
2019-02-02T03:20:15.993Z,4.25
2019-02-02T03:25:20.809Z,4.25
2019-02-02T03:30:23.716Z,4.11
2019-02-02T03:35:26.448Z,4.14
2019-02-02T03:40:29.099Z,4.42
2019-02-02T03:45:31.827Z,4.28
2019-02-02T03:50:34.438Z,4.28
2019-02-02T03:55:37.143Z,4.22
2019-02-02T04:00:39.841Z,4.31
2019-02-02T04:05:42.614Z,4.36
2019-02-02T04:10:45.317Z,4.27
2019-02-02T04:15:48.010Z,4.16
2019-02-02T04:20:50.765Z,4.15
2019-02-02T04:25:53.519Z,4.25
2019-02-02T04:30:56.199Z,4.43
2019-02-02T04:35:58.862Z,4.32
2019-02-02T04:41:01.593Z,4.42
2019-02-02T04:46:04.352Z,4.14
2019-02-02T04:51:07.155Z,3.93
2019-02-02T04:56:10.090Z,3.92
2019-02-02T05:01:12.873Z,3.98
2019-02-02T05:06:15.924Z,4.08
2019-02-02T05:11:18.687Z,4.30
2019-02-02T05:16:21.367Z,4.30
2019-02-02T05:21:24.132Z,4.15
2019-02-02T05:26:26.935Z,4.19
2019-02-02T05:31:29.607Z,4.49
2019-02-02T05:36:32.437Z,4.57
2019-02-02T05:41:35.019Z,4.33
2019-02-02T05:46:37.629Z,4.48
2019-02-02T05:51:40.375Z,4.60
2019-02-02T05:56:42.995Z,4.78
2019-02-02T06:01:45.760Z,4.86
2019-02-02T06:06:48.424Z,4.77
2019-02-02T06:11:51.161Z,4.80
2019-02-02T06:16:53.932Z,4.79
2019-02-02T06:21:56.672Z,4.66
2019-02-02T06:26:59.457Z,4.58
2019-02-02T06:32:11.495Z,4.01
2019-02-02T06:37:06.811Z,3.82
2019-02-02T06:42:09.543Z,3.68
2019-02-02T06:47:12.204Z,3.66
2019-02-02T06:52:14.906Z,3.50
2019-02-02T06:57:17.677Z,3.27
2019-02-02T07:02:20.500Z,3.31
2019-02-02T07:07:23.317Z,3.42
2019-02-02T07:12:26.248Z,3.25
2019-02-02T07:17:29.028Z,3.32
2019-02-02T07:22:31.713Z,3.54
2019-02-02T07:27:34.384Z,3.68
2019-02-02T07:32:37.170Z,3.67
2019-02-02T07:37:39.991Z,3.92
2019-02-02T07:42:43.032Z,4.13
2019-02-02T07:47:45.699Z,3.87
2019-02-02T07:52:48.463Z,3.73
2019-02-02T07:57:51.230Z,3.39
2019-02-02T08:02:54.109Z,3.57
2019-02-02T08:07:56.992Z,3.70
2019-02-02T08:12:59.679Z,3.81
2019-02-02T08:18:02.499Z,4.00
2019-02-02T08:23:05.336Z,4.00
2019-02-02T08:28:08.068Z,3.93
2019-02-02T08:33:10.912Z,3.96
2019-02-02T08:38:13.605Z,4.14
2019-02-02T08:43:16.367Z,3.92
2019-02-02T08:48:19.054Z,3.88
2019-02-02T08:53:21.725Z,3.85
2019-02-02T08:58:24.445Z,3.87
2019-02-02T09:09:07.773Z,4.06
2019-02-02T09:14:10.460Z,3.54
2019-02-02T09:19:13.031Z,3.48
2019-02-02T09:24:15.647Z,3.16
2019-02-02T09:29:18.390Z,2.71
2019-02-02T09:34:21.222Z,2.96
2019-02-02T09:39:23.922Z,3.36
2019-02-02T09:44:26.759Z,4.23
2019-02-02T09:49:29.498Z,3.82
2019-02-02T09:54:32.121Z,3.40
2019-02-02T09:59:34.917Z,3.80
2019-02-02T10:04:37.491Z,5.35
2019-02-02T10:09:40.346Z,6.13
2019-02-02T10:14:43.024Z,6.05
2019-02-02T10:19:45.699Z,4.94
2019-02-02T10:24:48.522Z,4.34
2019-02-02T10:29:51.413Z,4.26
2019-02-02T10:34:54.294Z,6.27
2019-02-02T10:39:56.968Z,6.37
2019-02-02T10:44:59.781Z,7.52
2019-02-02T10:50:05.432Z,8.81
2019-02-02T10:55:09.731Z,10.49
2019-02-02T11:00:18.459Z,11.74
2019-02-02T11:05:21.494Z,11.62
2019-02-02T11:10:26.572Z,11.07
2019-02-02T11:15:29.577Z,10.36
2019-02-02T11:20:33.646Z,10.09
2019-02-02T11:25:36.852Z,8.65
2019-02-02T11:30:39.644Z,8.43
2019-02-02T11:35:42.506Z,7.83
2019-02-02T11:40:45.373Z,7.74
2019-02-02T11:45:48.071Z,7.99
2019-02-02T11:50:52.401Z,6.89
2019-02-02T11:55:55.271Z,6.89
2019-02-02T12:00:58.127Z,6.73
2019-02-02T12:06:00.848Z,8.06
2019-02-02T12:11:03.636Z,8.17
2019-02-02T12:16:06.428Z,7.72
2019-02-02T12:21:09.197Z,8.53
2019-02-02T12:26:11.904Z,9.97
2019-02-02T12:31:14.717Z,10.38
2019-02-02T12:36:17.388Z,10.58
2019-02-02T12:41:20.420Z,10.77
2019-02-02T12:46:23.258Z,9.24
2019-02-02T12:51:25.935Z,10.61
2019-02-02T12:56:28.767Z,11.92
2019-02-02T13:01:31.408Z,12.71
2019-02-02T13:06:34.092Z,12.49
2019-02-02T13:11:39.030Z,11.46
2019-02-02T13:16:41.663Z,11.56
2019-02-02T13:21:44.371Z,11.09
2019-02-02T13:26:47.011Z,11.49
2019-02-02T13:31:49.681Z,11.10
2019-02-02T13:36:52.626Z,10.84
2019-02-02T13:41:55.288Z,9.42
2019-02-02T13:46:57.977Z,8.65
2019-02-02T13:52:00.596Z,8.75
2019-02-02T13:57:04.489Z,9.00
2019-02-02T14:02:07.168Z,9.20
2019-02-02T14:07:17.787Z,9.05
2019-02-02T14:12:14.471Z,9.12
2019-02-02T14:17:17.334Z,9.29
2019-02-02T14:22:19.943Z,9.21
2019-02-02T14:27:22.646Z,8.75
2019-02-02T14:32:25.413Z,7.71
2019-02-02T14:37:28.194Z,7.29
2019-02-02T14:42:30.926Z,6.75
2019-02-02T14:47:33.642Z,6.86
2019-02-02T14:52:36.549Z,7.77
2019-02-02T14:57:39.384Z,7.60
2019-02-02T15:02:42.094Z,6.78
2019-02-02T15:07:44.857Z,7.09
2019-02-02T15:12:47.665Z,6.42
2019-02-02T15:17:50.557Z,6.16
2019-02-02T15:22:53.321Z,6.70
2019-02-02T15:27:56.149Z,6.10
2019-02-02T15:32:59.221Z,5.96
2019-02-02T15:38:02.037Z,5.97
2019-02-02T15:43:04.877Z,6.09
2019-02-02T15:48:07.664Z,6.88
2019-02-02T15:53:10.559Z,6.40
2019-02-02T15:58:13.273Z,6.29
2019-02-02T16:03:16.008Z,5.90
2019-02-02T16:08:18.744Z,5.84
2019-02-02T16:13:21.421Z,6.04
2019-02-02T16:18:24.253Z,6.70
2019-02-02T16:23:26.858Z,6.53
2019-02-02T16:28:29.667Z,5.83
2019-02-02T16:33:33.307Z,5.36
2019-02-02T16:38:35.948Z,5.30
2019-02-02T16:43:38.639Z,5.18
2019-02-02T16:48:41.386Z,4.95
2019-02-02T16:53:44.101Z,5.06
2019-02-02T16:58:46.771Z,5.24
2019-02-02T17:03:49.427Z,5.17
2019-02-02T17:08:52.200Z,5.28
2019-02-02T17:13:54.909Z,5.26
2019-02-02T17:18:57.568Z,4.94
2019-02-02T17:24:00.135Z,4.92
2019-02-02T17:29:03.228Z,4.88
2019-02-02T17:34:06.091Z,4.78
2019-02-02T17:39:08.829Z,4.82
2019-02-02T17:44:11.529Z,4.91
2019-02-02T17:49:14.479Z,5.07
2019-02-02T17:54:17.334Z,5.26
2019-02-02T17:59:20.155Z,5.25
2019-02-02T18:04:23.104Z,5.16
2019-02-02T18:09:26.049Z,4.99
2019-02-02T18:14:28.831Z,4.82
2019-02-02T18:19:31.520Z,4.77
2019-02-02T18:24:34.225Z,4.89
2019-02-02T18:29:36.842Z,5.04
2019-02-02T18:34:49.954Z,5.01
2019-02-02T18:39:44.298Z,4.83
2019-02-02T18:44:46.961Z,4.68
2019-02-02T18:49:49.635Z,4.68
2019-02-02T18:54:52.329Z,4.59
2019-02-02T18:59:55.016Z,4.54
2019-02-02T19:05:04.053Z,4.64
2019-02-02T19:10:02.422Z,4.61
2019-02-02T19:15:06.324Z,4.65
2019-02-02T19:20:12.241Z,4.58
2019-02-02T19:25:14.834Z,4.41
2019-02-02T19:30:20.046Z,4.45
2019-02-02T19:35:23.032Z,4.45
2019-02-02T19:40:25.748Z,4.28
2019-02-02T19:45:28.953Z,4.33
2019-02-02T19:50:31.775Z,4.44
2019-02-02T19:55:34.583Z,4.45
2019-02-02T20:00:37.342Z,4.61
2019-02-02T20:05:40.029Z,4.87
2019-02-02T20:10:42.746Z,5.06
2019-02-02T20:15:45.292Z,4.89
2019-02-02T20:20:47.891Z,4.63
2019-02-02T20:25:50.563Z,4.37
2019-02-02T20:30:53.225Z,4.15
2019-02-02T20:35:56.032Z,4.05
2019-02-02T20:40:59.714Z,4.14
2019-02-02T20:46:03.690Z,4.25
2019-02-02T20:51:06.694Z,4.44
2019-02-02T20:56:09.412Z,4.42
2019-02-02T21:01:12.177Z,4.28
2019-02-02T21:06:14.857Z,4.26
2019-02-02T21:11:17.668Z,4.29
2019-02-02T21:16:20.524Z,4.43
2019-02-02T21:21:23.313Z,4.64
2019-02-02T21:26:25.926Z,4.88
2019-02-02T21:31:28.541Z,5.01
2019-02-02T21:36:31.229Z,4.84
2019-02-02T21:41:34.077Z,4.57
2019-02-02T21:46:36.806Z,4.41
2019-02-02T21:51:39.518Z,4.12
2019-02-02T21:56:42.173Z,4.05
2019-02-02T22:01:44.953Z,4.08
2019-02-02T22:06:47.580Z,4.13
2019-02-02T22:11:50.269Z,4.58
2019-02-02T22:16:53.021Z,4.96
2019-02-02T22:21:55.767Z,5.30
2019-02-02T22:26:58.397Z,5.53
2019-02-02T22:32:00.962Z,4.81
2019-02-02T22:37:04.198Z,4.37
2019-02-02T22:42:06.956Z,4.49
2019-02-02T22:47:09.625Z,4.57
2019-02-02T22:52:12.263Z,4.55
2019-02-02T22:57:14.917Z,4.46
2019-02-02T23:02:20.461Z,4.36
2019-02-02T23:07:49.269Z,4.21
2019-02-02T23:13:10.398Z,4.40
2019-02-02T23:18:13.031Z,4.61
2019-02-02T23:23:15.603Z,4.31
2019-02-02T23:28:18.477Z,4.14
2019-02-02T23:33:21.274Z,4.06
2019-02-02T23:38:24.052Z,4.18
2019-02-02T23:43:26.741Z,4.14
2019-02-02T23:48:29.648Z,3.98
2019-02-02T23:53:32.403Z,3.87
2019-02-02T23:58:35.090Z,3.86
